sensor_id;sensor_type;location;lat;lon;timestamp;temperature;humidity
8402;DHT22;4238;48.404;9.498;2023-07-29T04:02:58;16.10;99.90
8402;DHT22;4238;48.404;9.498;2023-07-29T04:05:25;16.10;99.90
8402;DHT22;4238;48.404;9.498;2023-07-29T04:07:52;16.10;99.90
8402;DHT22;4238;48.404;9.498;2023-07-29T04:10:19;16.20;99.90
8402;DHT22;4238;48.404;9.498;2023-07-29T04:12:46;16.20;99.90
8402;DHT22;4238;48.404;9.498;2023-07-29T04:15:13;16.20;99.90
8402;DHT22;4238;48.404;9.498;2023-07-29T04:17:40;16.20;99.90
8402;DHT22;4238;48.404;9.498;2023-07-29T04:20:10;16.20;99.90
8402;DHT22;4238;48.404;9.498;2023-07-29T04:22:37;16.20;99.90
8402;DHT22;4238;48.404;9.498;2023-07-29T04:25:05;16.20;99.90
8402;DHT22;4238;48.404;9.498;2023-07-29T04:27:32;16.20;99.90
8402;DHT22;4238;48.404;9.498;2023-07-29T04:29:59;16.20;99.90
8402;DHT22;4238;48.404;9.498;2023-07-29T04:32:26;16.20;99.90
8402;DHT22;4238;48.404;9.498;2023-07-29T04:34:53;16.20;99.90
8402;DHT22;4238;48.404;9.498;2023-07-29T04:37:21;16.20;99.90
8402;DHT22;4238;48.404;9.498;2023-07-29T04:39:48;16.20;99.90
8402;DHT22;4238;48.404;9.498;2023-07-29T04:42:15;16.20;99.90
8402;DHT22;4238;48.404;9.498;2023-07-29T04:44:42;16.10;99.90
8402;DHT22;4238;48.404;9.498;2023-07-29T04:47:09;16.20;99.90
8402;DHT22;4238;48.404;9.498;2023-07-29T04:49:36;16.20;99.90
8402;DHT22;4238;48.404;9.498;2023-07-29T04:52:03;16.30;99.90
8402;DHT22;4238;48.404;9.498;2023-07-29T04:54:32;16.30;99.90
8402;DHT22;4238;48.404;9.498;2023-07-29T04:56:58;16.30;99.90
8402;DHT22;4238;48.404;9.498;2023-07-29T04:59:25;16.40;99.90
8402;DHT22;4238;48.404;9.498;2023-07-29T05:01:52;16.50;99.90
8402;DHT22;4238;48.404;9.498;2023-07-29T05:04:19;16.60;99.90
8402;DHT22;4238;48.404;9.498;2023-07-29T05:06:46;16.70;99.90
8402;DHT22;4238;48.404;9.498;2023-07-29T05:09:14;16.70;99.90
8402;DHT22;4238;48.404;9.498;2023-07-29T05:11:42;16.70;99.90
8402;DHT22;4238;48.404;9.498;2023-07-29T05:14:11;16.70;99.90
8402;DHT22;4238;48.404;9.498;2023-07-29T05:16:38;16.80;99.90
8402;DHT22;4238;48.404;9.498;2023-07-29T05:19:04;16.70;99.90
8402;DHT22;4238;48.404;9.498;2023-07-29T05:21:31;16.80;99.90
8402;DHT22;4238;48.404;9.498;2023-07-29T05:23:58;16.70;99.90
8402;DHT22;4238;48.404;9.498;2023-07-29T05:26:25;16.70;99.90
8402;DHT22;4238;48.404;9.498;2023-07-29T05:28:54;16.80;99.90
8402;DHT22;4238;48.404;9.498;2023-07-29T05:31:21;16.80;99.90
8402;DHT22;4238;48.404;9.498;2023-07-29T05:33:48;16.80;99.90
8402;DHT22;4238;48.404;9.498;2023-07-29T05:36:15;16.80;99.90
8402;DHT22;4238;48.404;9.498;2023-07-29T05:38:42;16.80;99.90
8402;DHT22;4238;48.404;9.498;2023-07-29T05:41:09;16.70;99.90
8402;DHT22;4238;48.404;9.498;2023-07-29T05:43:36;16.70;99.90
8402;DHT22;4238;48.404;9.498;2023-07-29T05:46:04;16.70;99.90
8402;DHT22;4238;48.404;9.498;2023-07-29T05:48:31;16.80;99.90
8402;DHT22;4238;48.404;9.498;2023-07-29T05:50:59;16.80;99.90
8402;DHT22;4238;48.404;9.498;2023-07-29T05:53:26;16.80;99.90
8402;DHT22;4238;48.404;9.498;2023-07-29T05:55:52;16.80;99.90
8402;DHT22;4238;48.404;9.498;2023-07-29T05:58:19;16.80;99.90
8402;DHT22;4238;48.404;9.498;2023-07-29T06:00:46;16.80;99.90
8402;DHT22;4238;48.404;9.498;2023-07-29T06:03:14;16.80;99.90
8402;DHT22;4238;48.404;9.498;2023-07-29T06:05:41;16.90;99.90
8402;DHT22;4238;48.404;9.498;2023-07-29T06:08:08;16.90;99.90
8402;DHT22;4238;48.404;9.498;2023-07-29T06:10:35;17.00;99.90
8402;DHT22;4238;48.404;9.498;2023-07-29T06:13:02;17.10;99.90
8402;DHT22;4238;48.404;9.498;2023-07-29T06:15:29;17.20;99.90
8402;DHT22;4238;48.404;9.498;2023-07-29T06:17:56;17.30;99.90
8402;DHT22;4238;48.404;9.498;2023-07-29T06:20:24;17.40;99.90
8402;DHT22;4238;48.404;9.498;2023-07-29T06:22:51;17.80;99.90
8402;DHT22;4238;48.404;9.498;2023-07-29T06:25:18;18.30;99.90
8402;DHT22;4238;48.404;9.498;2023-07-29T06:27:45;18.60;99.90
8402;DHT22;4238;48.404;9.498;2023-07-29T06:30:11;19.00;99.90
8402;DHT22;4238;48.404;9.498;2023-07-29T06:32:38;19.20;99.90
8402;DHT22;4238;48.404;9.498;2023-07-29T06:35:06;19.20;99.90
8402;DHT22;4238;48.404;9.498;2023-07-29T06:37:34;19.00;99.90
8402;DHT22;4238;48.404;9.498;2023-07-29T06:40:01;18.90;99.90
8402;DHT22;4238;48.404;9.498;2023-07-29T06:42:28;18.90;99.90
8402;DHT22;4238;48.404;9.498;2023-07-29T06:44:55;18.90;99.90
8402;DHT22;4238;48.404;9.498;2023-07-29T06:47:22;19.00;99.90
8402;DHT22;4238;48.404;9.498;2023-07-29T06:49:49;18.90;99.90
8402;DHT22;4238;48.404;9.498;2023-07-29T06:52:16;18.70;99.90
8402;DHT22;4238;48.404;9.498;2023-07-29T06:54:44;18.70;99.90
8402;DHT22;4238;48.404;9.498;2023-07-29T06:57:11;19.20;99.90
8402;DHT22;4238;48.404;9.498;2023-07-29T06:59:38;19.50;99.90
8402;DHT22;4238;48.404;9.498;2023-07-29T07:02:06;20.00;99.90
8402;DHT22;4238;48.404;9.498;2023-07-29T07:04:33;20.40;99.90
8402;DHT22;4238;48.404;9.498;2023-07-29T07:07:00;20.60;99.90
8402;DHT22;4238;48.404;9.498;2023-07-29T07:09:27;20.90;99.10
8402;DHT22;4238;48.404;9.498;2023-07-29T07:11:55;21.00;97.00
8402;DHT22;4238;48.404;9.498;2023-07-29T07:14:22;20.60;96.70
8402;DHT22;4238;48.404;9.498;2023-07-29T07:16:49;20.50;99.90
8402;DHT22;4238;48.404;9.498;2023-07-29T07:19:15;20.50;99.90
8402;DHT22;4238;48.404;9.498;2023-07-29T07:21:42;20.30;99.90
8402;DHT22;4238;48.404;9.498;2023-07-29T07:24:09;20.20;99.90
8402;DHT22;4238;48.404;9.498;2023-07-29T07:26:36;20.00;99.90
8402;DHT22;4238;48.404;9.498;2023-07-29T07:29:05;19.80;99.90
8402;DHT22;4238;48.404;9.498;2023-07-29T07:31:33;19.60;99.90
8402;DHT22;4238;48.404;9.498;2023-07-29T07:34:00;19.40;99.90
8402;DHT22;4238;48.404;9.498;2023-07-29T07:36:28;19.10;99.90
8402;DHT22;4238;48.404;9.498;2023-07-29T07:38:55;18.90;99.90
8402;DHT22;4238;48.404;9.498;2023-07-29T07:41:22;18.80;99.90
8402;DHT22;4238;48.404;9.498;2023-07-29T07:43:50;18.70;99.90
8402;DHT22;4238;48.404;9.498;2023-07-29T07:46:18;18.50;99.90
8402;DHT22;4238;48.404;9.498;2023-07-29T07:48:45;18.40;99.90
8402;DHT22;4238;48.404;9.498;2023-07-29T07:51:13;18.30;99.90
8402;DHT22;4238;48.404;9.498;2023-07-29T07:53:39;18.20;99.90
8402;DHT22;4238;48.404;9.498;2023-07-29T07:56:06;18.20;99.90
8402;DHT22;4238;48.404;9.498;2023-07-29T07:58:34;18.20;99.90
8402;DHT22;4238;48.404;9.498;2023-07-29T08:01:01;18.30;99.90
8402;DHT22;4238;48.404;9.498;2023-07-29T08:03:30;18.30;99.90
8402;DHT22;4238;48.404;9.498;2023-07-29T08:05:57;18.40;99.90
8402;DHT22;4238;48.404;9.498;2023-07-29T08:08:24;18.50;99.90
8402;DHT22;4238;48.404;9.498;2023-07-29T08:10:52;18.50;99.90
8402;DHT22;4238;48.404;9.498;2023-07-29T08:13:20;18.40;99.90
8402;DHT22;4238;48.404;9.498;2023-07-29T08:15:47;18.30;99.90
8402;DHT22;4238;48.404;9.498;2023-07-29T08:18:14;18.20;99.90
8402;DHT22;4238;48.404;9.498;2023-07-29T08:20:51;18.20;99.90
8402;DHT22;4238;48.404;9.498;2023-07-29T08:23:19;18.10;99.90
8402;DHT22;4238;48.404;9.498;2023-07-29T08:25:54;18.00;99.90
8402;DHT22;4238;48.404;9.498;2023-07-29T08:28:21;17.90;99.90
8402;DHT22;4238;48.404;9.498;2023-07-29T08:30:48;17.90;99.90
8402;DHT22;4238;48.404;9.498;2023-07-29T08:33:15;17.90;99.90
8402;DHT22;4238;48.404;9.498;2023-07-29T08:35:43;17.90;99.90
8402;DHT22;4238;48.404;9.498;2023-07-29T08:38:10;17.90;99.90
8402;DHT22;4238;48.404;9.498;2023-07-29T08:40:41;18.00;99.90
8402;DHT22;4238;48.404;9.498;2023-07-29T08:43:09;18.10;99.90
8402;DHT22;4238;48.404;9.498;2023-07-29T08:45:38;18.20;99.90
8402;DHT22;4238;48.404;9.498;2023-07-29T08:48:08;18.30;99.90
8402;DHT22;4238;48.404;9.498;2023-07-29T08:50:36;18.20;99.90
8402;DHT22;4238;48.404;9.498;2023-07-29T08:53:05;18.30;99.90
8402;DHT22;4238;48.404;9.498;2023-07-29T08:55:32;18.50;99.90
8402;DHT22;4238;48.404;9.498;2023-07-29T08:57:59;18.60;99.90
8402;DHT22;4238;48.404;9.498;2023-07-29T09:00:27;18.80;99.90
8402;DHT22;4238;48.404;9.498;2023-07-29T09:02:54;18.90;99.90
8402;DHT22;4238;48.404;9.498;2023-07-29T09:05:23;19.20;99.90
8402;DHT22;4238;48.404;9.498;2023-07-29T09:07:51;19.90;99.90
8402;DHT22;4238;48.404;9.498;2023-07-29T09:10:22;20.50;99.90
8402;DHT22;4238;48.404;9.498;2023-07-29T09:12:52;20.80;99.90
8402;DHT22;4238;48.404;9.498;2023-07-29T09:15:29;21.30;99.90
8402;DHT22;4238;48.404;9.498;2023-07-29T09:17:56;21.70;87.30
8402;DHT22;4238;48.404;9.498;2023-07-29T09:20:24;22.20;92.20
8402;DHT22;4238;48.404;9.498;2023-07-29T09:22:53;22.30;74.70
8402;DHT22;4238;48.404;9.498;2023-07-29T09:25:24;22.40;65.30
8402;DHT22;4238;48.404;9.498;2023-07-29T09:27:51;22.60;56.00
8402;DHT22;4238;48.404;9.498;2023-07-29T09:30:18;22.60;56.00
8402;DHT22;4238;48.404;9.498;2023-07-29T09:32:45;22.80;45.70
8402;DHT22;4238;48.404;9.498;2023-07-29T09:35:13;23.00;56.60
8402;DHT22;4238;48.404;9.498;2023-07-29T09:37:41;23.10;52.30
8402;DHT22;4238;48.404;9.498;2023-07-29T09:40:14;23.30;46.20
8402;DHT22;4238;48.404;9.498;2023-07-29T09:42:48;23.50;28.50
8402;DHT22;4238;48.404;9.498;2023-07-29T09:45:21;23.70;35.90
8402;DHT22;4238;48.404;9.498;2023-07-29T09:47:48;23.90;9.30
8402;DHT22;4238;48.404;9.498;2023-07-29T09:50:15;23.80;22.40
8402;DHT22;4238;48.404;9.498;2023-07-29T09:52:42;23.90;17.20
8402;DHT22;4238;48.404;9.498;2023-07-29T09:55:11;24.00;18.10
8402;DHT22;4238;48.404;9.498;2023-07-29T09:57:39;24.10;15.90
8402;DHT22;4238;48.404;9.498;2023-07-29T10:00:11;24.20;5.40
8402;DHT22;4238;48.404;9.498;2023-07-29T10:02:39;24.50;4.20
8402;DHT22;4238;48.404;9.498;2023-07-29T10:05:07;24.60;1.00
8402;DHT22;4238;48.404;9.498;2023-07-29T10:07:36;24.80;1.00
8402;DHT22;4238;48.404;9.498;2023-07-29T10:10:05;24.40;1.00
8402;DHT22;4238;48.404;9.498;2023-07-29T10:12:33;23.70;1.00
8402;DHT22;4238;48.404;9.498;2023-07-29T10:15:03;22.90;1.00
8402;DHT22;4238;48.404;9.498;2023-07-29T10:17:34;22.40;18.80
8402;DHT22;4238;48.404;9.498;2023-07-29T10:20:04;21.90;12.50
8402;DHT22;4238;48.404;9.498;2023-07-29T10:22:33;21.40;58.80
8402;DHT22;4238;48.404;9.498;2023-07-29T10:25:03;21.10;73.20
8402;DHT22;4238;48.404;9.498;2023-07-29T10:27:38;21.00;89.80
8402;DHT22;4238;48.404;9.498;2023-07-29T10:30:07;21.50;92.00
8402;DHT22;4238;48.404;9.498;2023-07-29T10:32:35;22.20;97.50
8402;DHT22;4238;48.404;9.498;2023-07-29T10:35:03;22.80;67.50
8402;DHT22;4238;48.404;9.498;2023-07-29T10:37:30;22.90;49.50
8402;DHT22;4238;48.404;9.498;2023-07-29T10:39:57;22.90;27.20
8402;DHT22;4238;48.404;9.498;2023-07-29T10:42:24;22.80;36.00
8402;DHT22;4238;48.404;9.498;2023-07-29T10:44:52;22.50;48.30
8402;DHT22;4238;48.404;9.498;2023-07-29T10:47:20;22.80;25.80
8402;DHT22;4238;48.404;9.498;2023-07-29T10:49:52;23.20;52.90
8402;DHT22;4238;48.404;9.498;2023-07-29T10:52:31;23.40;34.70
8402;DHT22;4238;48.404;9.498;2023-07-29T10:54:58;23.70;13.10
8402;DHT22;4238;48.404;9.498;2023-07-29T10:57:32;23.80;23.70
8402;DHT22;4238;48.404;9.498;2023-07-29T10:59:59;24.00;1.00
8402;DHT22;4238;48.404;9.498;2023-07-29T11:02:31;24.20;1.00
8402;DHT22;4238;48.404;9.498;2023-07-29T11:05:05;24.20;1.00
8402;DHT22;4238;48.404;9.498;2023-07-29T11:07:43;24.30;1.00
8402;DHT22;4238;48.404;9.498;2023-07-29T11:10:12;24.50;1.00
8402;DHT22;4238;48.404;9.498;2023-07-29T11:12:40;24.40;1.00
8402;DHT22;4238;48.404;9.498;2023-07-29T11:15:19;24.10;1.00
8402;DHT22;4238;48.404;9.498;2023-07-29T11:17:49;24.00;1.00
8402;DHT22;4238;48.404;9.498;2023-07-29T11:20:18;24.00;1.00
8402;DHT22;4238;48.404;9.498;2023-07-29T11:22:45;24.10;1.00
8402;DHT22;4238;48.404;9.498;2023-07-29T11:25:14;23.90;1.00
8402;DHT22;4238;48.404;9.498;2023-07-29T11:27:42;23.40;1.00
8402;DHT22;4238;48.404;9.498;2023-07-29T11:30:10;23.10;1.00
8402;DHT22;4238;48.404;9.498;2023-07-29T11:32:38;22.90;1.00
8402;DHT22;4238;48.404;9.498;2023-07-29T11:35:07;22.60;1.00
8402;DHT22;4238;48.404;9.498;2023-07-29T11:37:38;22.40;1.00
8402;DHT22;4238;48.404;9.498;2023-07-29T11:40:06;22.40;1.30
8402;DHT22;4238;48.404;9.498;2023-07-29T11:42:34;22.40;2.70
8402;DHT22;4238;48.404;9.498;2023-07-29T11:45:02;22.30;1.30
8402;DHT22;4238;48.404;9.498;2023-07-29T11:47:32;22.30;6.40
8402;DHT22;4238;48.404;9.498;2023-07-29T11:50:02;22.20;16.40
8402;DHT22;4238;48.404;9.498;2023-07-29T11:52:29;22.10;23.20
8402;DHT22;4238;48.404;9.498;2023-07-29T11:55:00;22.00;28.20
8402;DHT22;4238;48.404;9.498;2023-07-29T11:57:27;22.00;23.50
8402;DHT22;4238;48.404;9.498;2023-07-29T11:59:54;22.00;40.50
8402;DHT22;4238;48.404;9.498;2023-07-29T12:02:22;21.90;25.90
8402;DHT22;4238;48.404;9.498;2023-07-29T12:04:50;22.00;42.40
8402;DHT22;4238;48.404;9.498;2023-07-29T12:07:17;22.20;68.10
8402;DHT22;4238;48.404;9.498;2023-07-29T12:09:45;22.40;51.00
8402;DHT22;4238;48.404;9.498;2023-07-29T12:12:15;22.70;32.40
8402;DHT22;4238;48.404;9.498;2023-07-29T12:14:44;22.90;26.60
8402;DHT22;4238;48.404;9.498;2023-07-29T12:17:12;23.00;14.60
8402;DHT22;4238;48.404;9.498;2023-07-29T12:19:40;23.00;1.00
8402;DHT22;4238;48.404;9.498;2023-07-29T12:22:08;23.00;1.00
8402;DHT22;4238;48.404;9.498;2023-07-29T12:24:36;23.50;1.00
8402;DHT22;4238;48.404;9.498;2023-07-29T12:27:04;23.90;1.00
8402;DHT22;4238;48.404;9.498;2023-07-29T12:29:32;24.20;1.00
8402;DHT22;4238;48.404;9.498;2023-07-29T12:32:06;24.50;1.00
8402;DHT22;4238;48.404;9.498;2023-07-29T12:34:33;24.50;1.00
8402;DHT22;4238;48.404;9.498;2023-07-29T12:37:03;24.20;99.90
8402;DHT22;4238;48.404;9.498;2023-07-29T12:39:31;24.20;1.00
8402;DHT22;4238;48.404;9.498;2023-07-29T12:42:00;24.40;1.00
8402;DHT22;4238;48.404;9.498;2023-07-29T12:44:31;24.30;1.00
8402;DHT22;4238;48.404;9.498;2023-07-29T12:46:59;24.20;1.00
8402;DHT22;4238;48.404;9.498;2023-07-29T12:49:26;24.10;1.00
8402;DHT22;4238;48.404;9.498;2023-07-29T12:51:54;24.10;1.00
8402;DHT22;4238;48.404;9.498;2023-07-29T12:54:20;24.20;1.00
8402;DHT22;4238;48.404;9.498;2023-07-29T12:56:47;24.10;1.00
8402;DHT22;4238;48.404;9.498;2023-07-29T12:59:14;24.00;1.00
8402;DHT22;4238;48.404;9.498;2023-07-29T13:01:43;24.20;1.00
8402;DHT22;4238;48.404;9.498;2023-07-29T13:04:10;24.10;99.90
8402;DHT22;4238;48.404;9.498;2023-07-29T13:06:37;24.00;1.00
8402;DHT22;4238;48.404;9.498;2023-07-29T13:09:04;24.20;1.00
8402;DHT22;4238;48.404;9.498;2023-07-29T13:11:31;24.20;1.00
8402;DHT22;4238;48.404;9.498;2023-07-29T13:13:59;24.10;1.00
8402;DHT22;4238;48.404;9.498;2023-07-29T13:16:26;24.20;99.90
8402;DHT22;4238;48.404;9.498;2023-07-29T13:18:55;24.10;1.00
8402;DHT22;4238;48.404;9.498;2023-07-29T13:21:22;24.00;99.90
8402;DHT22;4238;48.404;9.498;2023-07-29T13:23:49;23.80;99.90
8402;DHT22;4238;48.404;9.498;2023-07-29T13:26:16;23.90;1.00
8402;DHT22;4238;48.404;9.498;2023-07-29T13:28:46;23.90;1.00
8402;DHT22;4238;48.404;9.498;2023-07-29T13:31:13;23.90;99.90
8402;DHT22;4238;48.404;9.498;2023-07-29T13:33:39;23.80;99.90
8402;DHT22;4238;48.404;9.498;2023-07-29T13:36:08;23.70;1.00
8402;DHT22;4238;48.404;9.498;2023-07-29T13:38:34;23.70;99.90
8402;DHT22;4238;48.404;9.498;2023-07-29T13:41:01;23.70;1.00
8402;DHT22;4238;48.404;9.498;2023-07-29T13:43:28;23.70;1.00
8402;DHT22;4238;48.404;9.498;2023-07-29T13:45:55;23.70;1.00
8402;DHT22;4238;48.404;9.498;2023-07-29T13:48:22;23.70;1.00
8402;DHT22;4238;48.404;9.498;2023-07-29T13:50:49;23.60;1.00
8402;DHT22;4238;48.404;9.498;2023-07-29T13:53:18;23.50;1.00
8402;DHT22;4238;48.404;9.498;2023-07-29T13:55:44;23.60;1.00
8402;DHT22;4238;48.404;9.498;2023-07-29T13:58:11;23.60;1.00
8402;DHT22;4238;48.404;9.498;2023-07-29T14:00:38;23.50;1.00
8402;DHT22;4238;48.404;9.498;2023-07-29T14:03:05;23.50;1.00
8402;DHT22;4238;48.404;9.498;2023-07-29T14:05:32;23.50;1.00
8402;DHT22;4238;48.404;9.498;2023-07-29T14:07:59;23.50;1.00
8402;DHT22;4238;48.404;9.498;2023-07-29T14:10:27;23.50;1.00
8402;DHT22;4238;48.404;9.498;2023-07-29T14:12:54;23.70;1.00
8402;DHT22;4238;48.404;9.498;2023-07-29T14:15:21;23.80;1.00
8402;DHT22;4238;48.404;9.498;2023-07-29T14:17:48;23.90;1.00
8402;DHT22;4238;48.404;9.498;2023-07-29T14:20:15;23.90;1.00
8402;DHT22;4238;48.404;9.498;2023-07-29T14:22:42;24.00;99.90
8402;DHT22;4238;48.404;9.498;2023-07-29T14:25:09;24.10;99.90
8402;DHT22;4238;48.404;9.498;2023-07-29T14:27:37;24.30;99.90
8402;DHT22;4238;48.404;9.498;2023-07-29T14:30:05;24.40;99.90
8402;DHT22;4238;48.404;9.498;2023-07-29T14:32:32;24.30;1.00
8402;DHT22;4238;48.404;9.498;2023-07-29T14:34:59;24.20;1.00
8402;DHT22;4238;48.404;9.498;2023-07-29T14:37:29;24.10;1.00
8402;DHT22;4238;48.404;9.498;2023-07-29T14:39:56;23.80;99.90
8402;DHT22;4238;48.404;9.498;2023-07-29T14:42:22;23.60;95.70
8402;DHT22;4238;48.404;9.498;2023-07-29T14:44:51;23.40;75.80
8402;DHT22;4238;48.404;9.498;2023-07-29T14:47:17;23.20;1.00
8402;DHT22;4238;48.404;9.498;2023-07-29T14:49:45;23.10;99.90
8402;DHT22;4238;48.404;9.498;2023-07-29T14:52:12;22.90;96.10
8402;DHT22;4238;48.404;9.498;2023-07-29T14:54:39;22.80;99.90
8402;DHT22;4238;48.404;9.498;2023-07-29T14:57:06;22.70;1.00
8402;DHT22;4238;48.404;9.498;2023-07-29T14:59:33;22.50;1.00
8402;DHT22;4238;48.404;9.498;2023-07-29T15:02:02;22.40;1.00
8402;DHT22;4238;48.404;9.498;2023-07-29T15:04:28;22.30;1.00
8402;DHT22;4238;48.404;9.498;2023-07-29T15:06:55;22.10;1.00
8402;DHT22;4238;48.404;9.498;2023-07-29T15:09:23;21.90;1.00
8402;DHT22;4238;48.404;9.498;2023-07-29T15:11:50;21.80;1.00
8402;DHT22;4238;48.404;9.498;2023-07-29T15:14:17;21.80;21.60
8402;DHT22;4238;48.404;9.498;2023-07-29T15:16:44;21.70;40.10
8402;DHT22;4238;48.404;9.498;2023-07-29T15:19:12;21.70;51.50
8402;DHT22;4238;48.404;9.498;2023-07-29T15:21:39;21.60;40.50
8402;DHT22;4238;48.404;9.498;2023-07-29T15:24:06;21.50;47.70
8402;DHT22;4238;48.404;9.498;2023-07-29T15:26:34;21.40;42.80
8402;DHT22;4238;48.404;9.498;2023-07-29T15:29:01;21.30;45.40
8402;DHT22;4238;48.404;9.498;2023-07-29T15:31:28;21.10;50.70
8402;DHT22;4238;48.404;9.498;2023-07-29T15:33:55;21.00;50.60
8402;DHT22;4238;48.404;9.498;2023-07-29T15:36:23;20.90;55.50
8402;DHT22;4238;48.404;9.498;2023-07-29T15:38:50;20.80;47.90
8402;DHT22;4238;48.404;9.498;2023-07-29T15:41:17;20.70;73.50
8402;DHT22;4238;48.404;9.498;2023-07-29T15:43:44;20.60;82.40
8402;DHT22;4238;48.404;9.498;2023-07-29T15:46:11;20.50;75.90
8402;DHT22;4238;48.404;9.498;2023-07-29T15:48:38;20.50;81.90
8402;DHT22;4238;48.404;9.498;2023-07-29T15:51:04;20.30;69.50
8402;DHT22;4238;48.404;9.498;2023-07-29T15:53:34;20.40;89.70
8402;DHT22;4238;48.404;9.498;2023-07-29T15:56:01;20.40;92.60
8402;DHT22;4238;48.404;9.498;2023-07-29T15:58:28;20.40;90.80
8402;DHT22;4238;48.404;9.498;2023-07-29T16:00:54;20.50;92.20
8402;DHT22;4238;48.404;9.498;2023-07-29T16:03:21;20.40;95.70
8402;DHT22;4238;48.404;9.498;2023-07-29T16:05:49;20.40;90.80
8402;DHT22;4238;48.404;9.498;2023-07-29T16:08:16;20.30;98.40
8402;DHT22;4238;48.404;9.498;2023-07-29T16:10:44;20.30;97.90
8402;DHT22;4238;48.404;9.498;2023-07-29T16:13:11;20.30;97.70
8402;DHT22;4238;48.404;9.498;2023-07-29T16:15:43;20.30;94.60
8402;DHT22;4238;48.404;9.498;2023-07-29T16:18:10;20.20;98.00
8402;DHT22;4238;48.404;9.498;2023-07-29T16:20:36;20.30;96.20
8402;DHT22;4238;48.404;9.498;2023-07-29T16:23:03;20.40;99.90
8402;DHT22;4238;48.404;9.498;2023-07-29T16:25:30;20.30;88.60
8402;DHT22;4238;48.404;9.498;2023-07-29T16:27:58;20.50;95.10
8402;DHT22;4238;48.404;9.498;2023-07-29T16:30:25;20.50;90.90
8402;DHT22;4238;48.404;9.498;2023-07-29T16:32:52;20.60;82.20
8402;DHT22;4238;48.404;9.498;2023-07-29T16:35:19;20.60;80.30
8402;DHT22;4238;48.404;9.498;2023-07-29T16:37:46;20.50;77.90
8402;DHT22;4238;48.404;9.498;2023-07-29T16:40:13;20.40;63.60
8402;DHT22;4238;48.404;9.498;2023-07-29T16:42:40;20.40;71.00
8402;DHT22;4238;48.404;9.498;2023-07-29T16:45:10;20.30;79.60
8402;DHT22;4238;48.404;9.498;2023-07-29T16:47:36;20.20;88.20
8402;DHT22;4238;48.404;9.498;2023-07-29T16:50:04;20.00;81.80
8402;DHT22;4238;48.404;9.498;2023-07-29T16:52:31;20.00;58.70
8402;DHT22;4238;48.404;9.498;2023-07-29T16:54:58;19.90;59.90
8402;DHT22;4238;48.404;9.498;2023-07-29T16:57:24;19.90;75.70
8402;DHT22;4238;48.404;9.498;2023-07-29T16:59:51;19.80;69.80
8402;DHT22;4238;48.404;9.498;2023-07-29T17:02:19;19.90;88.20
8402;DHT22;4238;48.404;9.498;2023-07-29T17:04:46;20.00;94.70
8402;DHT22;4238;48.404;9.498;2023-07-29T17:07:13;20.00;96.40
8402;DHT22;4238;48.404;9.498;2023-07-29T17:09:42;20.00;96.20
8402;DHT22;4238;48.404;9.498;2023-07-29T17:12:11;20.10;97.40
8402;DHT22;4238;48.404;9.498;2023-07-29T17:14:38;20.10;97.90
8402;DHT22;4238;48.404;9.498;2023-07-29T17:17:05;20.00;94.70
8402;DHT22;4238;48.404;9.498;2023-07-29T17:19:34;19.90;96.70
8402;DHT22;4238;48.404;9.498;2023-07-29T17:22:01;19.90;98.20
8402;DHT22;4238;48.404;9.498;2023-07-29T17:24:28;19.90;95.80
8402;DHT22;4238;48.404;9.498;2023-07-29T17:26:55;19.80;98.80
8402;DHT22;4238;48.404;9.498;2023-07-29T17:29:22;19.80;99.50
8402;DHT22;4238;48.404;9.498;2023-07-29T17:31:49;19.80;99.90
8402;DHT22;4238;48.404;9.498;2023-07-29T17:34:15;19.70;99.90
8402;DHT22;4238;48.404;9.498;2023-07-29T17:36:45;19.70;99.90
8402;DHT22;4238;48.404;9.498;2023-07-29T17:39:11;19.60;99.90
8402;DHT22;4238;48.404;9.498;2023-07-29T17:41:38;19.70;99.90
8402;DHT22;4238;48.404;9.498;2023-07-29T17:44:05;19.60;99.20
8402;DHT22;4238;48.404;9.498;2023-07-29T17:46:32;19.60;97.50
8402;DHT22;4238;48.404;9.498;2023-07-29T17:48:59;19.60;99.90
8402;DHT22;4238;48.404;9.498;2023-07-29T17:51:26;19.60;99.90
8402;DHT22;4238;48.404;9.498;2023-07-29T17:53:54;19.70;98.40
8402;DHT22;4238;48.404;9.498;2023-07-29T17:56:21;19.70;98.80
8402;DHT22;4238;48.404;9.498;2023-07-29T17:58:48;19.60;97.90
8402;DHT22;4238;48.404;9.498;2023-07-29T18:01:15;19.50;99.90
8402;DHT22;4238;48.404;9.498;2023-07-29T18:03:41;19.50;99.90
8402;DHT22;4238;48.404;9.498;2023-07-29T18:06:11;19.50;99.90
8402;DHT22;4238;48.404;9.498;2023-07-29T18:08:38;19.50;99.90
8402;DHT22;4238;48.404;9.498;2023-07-29T18:11:07;19.40;99.90
8402;DHT22;4238;48.404;9.498;2023-07-29T18:13:34;19.30;99.90
8402;DHT22;4238;48.404;9.498;2023-07-29T18:16:01;19.30;99.90
8402;DHT22;4238;48.404;9.498;2023-07-29T18:18:28;19.30;99.90
8402;DHT22;4238;48.404;9.498;2023-07-29T18:20:55;19.30;99.90
8402;DHT22;4238;48.404;9.498;2023-07-29T18:23:22;19.30;99.90
8402;DHT22;4238;48.404;9.498;2023-07-29T18:25:50;19.10;99.90
8402;DHT22;4238;48.404;9.498;2023-07-29T18:28:20;19.10;99.90
8402;DHT22;4238;48.404;9.498;2023-07-29T18:30:47;19.10;99.90
8402;DHT22;4238;48.404;9.498;2023-07-29T18:33:15;19.20;99.90
8402;DHT22;4238;48.404;9.498;2023-07-29T18:35:42;19.20;99.90
8402;DHT22;4238;48.404;9.498;2023-07-29T18:38:09;19.20;99.90
8402;DHT22;4238;48.404;9.498;2023-07-29T18:40:36;19.10;99.90
8402;DHT22;4238;48.404;9.498;2023-07-29T18:43:03;19.00;99.90
8402;DHT22;4238;48.404;9.498;2023-07-29T18:45:33;19.00;99.90
8402;DHT22;4238;48.404;9.498;2023-07-29T18:48:00;19.00;99.90
8402;DHT22;4238;48.404;9.498;2023-07-29T18:50:27;18.90;99.90
8402;DHT22;4238;48.404;9.498;2023-07-29T18:52:54;19.00;99.90
8402;DHT22;4238;48.404;9.498;2023-07-29T18:55:23;18.90;99.90
8402;DHT22;4238;48.404;9.498;2023-07-29T18:57:50;18.80;99.90
8402;DHT22;4238;48.404;9.498;2023-07-29T19:00:17;18.70;99.90
8402;DHT22;4238;48.404;9.498;2023-07-29T19:02:46;18.60;99.90
8402;DHT22;4238;48.404;9.498;2023-07-29T19:05:14;18.50;99.90
8402;DHT22;4238;48.404;9.498;2023-07-29T19:07:40;18.50;99.90
8402;DHT22;4238;48.404;9.498;2023-07-29T19:10:08;18.60;99.90
8402;DHT22;4238;48.404;9.498;2023-07-29T19:12:35;18.60;99.90
8402;DHT22;4238;48.404;9.498;2023-07-29T19:15:05;18.60;99.90
8402;DHT22;4238;48.404;9.498;2023-07-29T19:17:32;18.60;99.90
8402;DHT22;4238;48.404;9.498;2023-07-29T19:20:00;18.50;99.90
8402;DHT22;4238;48.404;9.498;2023-07-29T19:22:27;18.50;99.90
8402;DHT22;4238;48.404;9.498;2023-07-29T19:24:54;18.40;99.90
8402;DHT22;4238;48.404;9.498;2023-07-29T19:27:20;18.30;99.90
8402;DHT22;4238;48.404;9.498;2023-07-29T19:29:47;18.40;99.90
8402;DHT22;4238;48.404;9.498;2023-07-29T19:32:15;18.40;99.90
8402;DHT22;4238;48.404;9.498;2023-07-29T19:34:42;18.30;99.90
8402;DHT22;4238;48.404;9.498;2023-07-29T19:37:11;18.30;99.90
8402;DHT22;4238;48.404;9.498;2023-07-29T19:39:41;18.20;99.90
8402;DHT22;4238;48.404;9.498;2023-07-29T19:42:07;18.20;99.90
8402;DHT22;4238;48.404;9.498;2023-07-29T19:44:35;18.20;99.90
8402;DHT22;4238;48.404;9.498;2023-07-29T19:47:02;18.20;99.90
8402;DHT22;4238;48.404;9.498;2023-07-29T19:49:29;18.20;99.90
8402;DHT22;4238;48.404;9.498;2023-07-29T19:51:56;18.10;99.90
8402;DHT22;4238;48.404;9.498;2023-07-29T19:54:28;18.10;99.90
8402;DHT22;4238;48.404;9.498;2023-07-29T19:56:55;18.00;99.90
8402;DHT22;4238;48.404;9.498;2023-07-29T19:59:22;18.00;99.90
8402;DHT22;4238;48.404;9.498;2023-07-29T20:01:49;18.00;99.90
8402;DHT22;4238;48.404;9.498;2023-07-29T20:04:15;18.00;99.90
8402;DHT22;4238;48.404;9.498;2023-07-29T20:06:42;17.90;99.90
8402;DHT22;4238;48.404;9.498;2023-07-29T20:09:09;17.90;99.90